Time;durP1;ratioP1;P1;durP2;ratioP2;P2;SDS_P1;SDS_P2;PMS_P1;PMS_P2;Temp;Humidity;BMP_temperature;BMP_pressure;BME280_temperature;BME280_humidity;BME280_pressure;Samples;Min_cycle;Max_cycle;Signal;HPM_P1;HPM_P2
2022/09/04 00:00:02;;;;;;;4.68;1.52;;;;;;;-147.53;100.00;57128.34;10226783;28;20083;-89
2022/09/04 00:05:25;;;;;;;3.75;1.42;;;;;;;-147.53;100.00;57128.34;10241756;28;20472;-89
2022/09/04 00:10:42;;;;;;;3.08;1.08;;;;;;;-147.53;100.00;57128.34;10240610;28;20682;-89
2022/09/04 00:15:49;;;;;;;3.15;1.17;;;;;;;-147.53;100.00;57128.34;10221993;28;20413;-89
2022/09/04 00:21:15;;;;;;;3.83;1.40;;;;;;;-147.53;100.00;57128.34;10229989;28;20400;-89
2022/09/04 00:26:42;;;;;;;3.80;1.38;;;;;;;-147.53;100.00;57128.34;10238738;28;20040;-89
2022/09/04 00:31:52;;;;;;;5.75;1.33;;;;;;;-147.53;100.00;57128.34;10238081;28;20114;-90
2022/09/04 00:37:03;;;;;;;3.90;1.40;;;;;;;-147.53;100.00;57128.34;10221280;28;20048;-89
2022/09/04 00:42:27;;;;;;;2.13;0.90;;;;;;;-147.53;100.00;57128.34;10255661;28;20057;-89
2022/09/04 00:47:47;;;;;;;5.70;1.48;;;;;;;-147.53;100.00;57128.34;10247796;28;20583;-90
2022/09/04 00:53:11;;;;;;;3.97;1.30;;;;;;;-147.53;100.00;57128.34;10246702;28;20049;-89
2022/09/04 00:58:44;;;;;;;2.75;1.20;;;;;;;-147.53;100.00;57128.34;10228868;28;20412;-90
2022/09/04 01:04:01;;;;;;;13.75;1.80;;;;;;;-147.53;100.00;57128.34;10216049;28;20484;-90
2022/09/04 01:09:41;;;;;;;2.75;1.27;;;;;;;-147.53;100.00;57128.34;10246312;28;20149;-89
2022/09/04 01:15:14;;;;;;;2.55;1.25;;;;;;;-147.53;100.00;57128.34;10255164;28;20042;-89
2022/09/04 01:21:00;;;;;;;3.88;1.33;;;;;;;-147.53;100.00;57128.34;10235577;28;20055;-89
2022/09/04 01:26:52;;;;;;;3.05;1.17;;;;;;;-147.53;100.00;57128.34;10241667;28;20035;-89
2022/09/04 01:32:28;;;;;;;8.05;1.25;;;;;;;-147.53;100.00;57128.34;10230875;28;20061;-89
2022/09/04 01:37:54;;;;;;;3.35;1.50;;;;;;;-147.53;100.00;57128.34;10226436;28;20523;-89
2022/09/04 01:43:05;;;;;;;3.55;1.60;;;;;;;-147.53;100.00;57128.34;10245758;28;20051;-89
2022/09/04 01:48:06;;;;;;;2.90;1.42;;;;;;;-147.53;100.00;57128.34;10258915;28;20078;-89
2022/09/04 01:53:18;;;;;;;4.38;1.58;;;;;;;-147.53;100.00;57128.34;10249531;28;20587;-89
2022/09/04 01:58:46;;;;;;;6.05;1.40;;;;;;;-147.53;100.00;57128.34;10246116;28;20038;-89
2022/09/04 02:04:06;;;;;;;5.00;1.40;;;;;;;-147.53;100.00;57128.34;10228638;28;20070;-89
2022/09/04 02:09:43;;;;;;;5.45;1.60;;;;;;;-147.53;100.00;57128.34;10244828;28;20051;-89
2022/09/04 02:15:11;;;;;;;4.05;1.52;;;;;;;-147.53;100.00;57128.34;10244590;28;20043;-89
2022/09/04 02:20:15;;;;;;;2.13;1.20;;;;;;;-147.53;100.00;57128.34;10247226;28;20118;-89
2022/09/04 02:25:23;;;;;;;3.83;1.38;;;;;;;-147.53;100.00;57128.34;10246247;28;20047;-89
2022/09/04 02:30:36;;;;;;;5.20;1.42;;;;;;;-147.53;100.00;57128.34;10238974;28;20187;-89
2022/09/04 02:35:49;;;;;;;3.78;1.50;;;;;;;-147.53;100.00;57128.34;10234484;28;20078;-90
2022/09/04 02:40:57;;;;;;;5.18;1.80;;;;;;;-147.53;100.00;57128.34;10245988;28;20043;-89
2022/09/04 02:46:05;;;;;;;3.88;1.25;;;;;;;-147.53;100.00;57128.34;10224214;28;20191;-89
2022/09/04 02:51:12;;;;;;;5.63;1.58;;;;;;;-147.53;100.00;57128.34;10234828;28;20122;-89
2022/09/04 02:56:36;;;;;;;2.65;1.52;;;;;;;-147.53;100.00;57128.34;10243098;28;20134;-89
2022/09/04 03:01:58;;;;;;;5.20;1.58;;;;;;;-147.53;100.00;57128.34;10235807;28;20396;-89
2022/09/04 03:07:33;;;;;;;3.03;1.25;;;;;;;-147.53;100.00;57128.34;10231459;28;20568;-90
2022/09/04 03:12:49;;;;;;;3.70;1.40;;;;;;;-147.53;100.00;57128.34;10240315;28;20036;-89
2022/09/04 03:18:04;;;;;;;4.10;1.60;;;;;;;-147.53;100.00;57128.34;10242685;28;20039;-90
2022/09/04 03:23:42;;;;;;;6.35;1.58;;;;;;;-147.53;100.00;57128.34;10229190;28;20069;-89
2022/09/04 03:29:01;;;;;;;4.18;1.67;;;;;;;-147.53;100.00;57128.34;10232683;28;20051;-89
2022/09/04 03:34:24;;;;;;;2.63;1.33;;;;;;;-147.53;100.00;57128.34;10253216;28;20081;-90
2022/09/04 03:39:47;;;;;;;4.22;1.38;;;;;;;-147.53;100.00;57128.34;10243590;28;20059;-89
2022/09/04 03:45:19;;;;;;;2.13;1.30;;;;;;;-147.53;100.00;57128.34;10250026;28;20140;-89
2022/09/04 03:50:48;;;;;;;3.35;1.40;;;;;;;-147.53;100.00;57128.34;10235926;28;20039;-89
2022/09/04 03:56:16;;;;;;;6.75;1.50;;;;;;;-147.53;100.00;57128.34;10239385;28;20670;-89
2022/09/04 04:01:38;;;;;;;3.08;1.50;;;;;;;-147.53;100.00;57128.34;10239317;28;20055;-89
2022/09/04 04:06:52;;;;;;;3.38;1.40;;;;;;;-147.53;100.00;57128.34;10245188;28;20047;-89
2022/09/04 04:12:26;;;;;;;5.30;1.48;;;;;;;-147.53;100.00;57128.34;10222680;28;20077;-89
2022/09/04 04:17:52;;;;;;;7.82;2.00;;;;;;;-147.53;100.00;57128.34;10238234;28;20619;-89
2022/09/04 04:23:16;;;;;;;3.03;1.52;;;;;;;-147.53;100.00;57128.34;10241941;28;20109;-89
2022/09/04 04:28:19;;;;;;;3.55;1.55;;;;;;;-147.53;100.00;57128.34;10238588;28;20062;-89
2022/09/04 04:33:44;;;;;;;6.13;1.50;;;;;;;-147.53;100.00;57128.34;10224647;28;20061;-90
2022/09/04 04:39:11;;;;;;;4.18;1.63;;;;;;;-147.53;100.00;57128.34;10227995;28;20040;-89
2022/09/04 04:45:48;;;;;;;3.22;1.55;;;;;;;-147.53;100.00;57128.34;10235488;28;20050;-90
2022/09/04 04:50:19;;;;;;;4.13;1.70;;;;;;;-147.53;100.00;57128.34;10218199;28;20046;-89
2022/09/04 04:55:37;;;;;;;5.18;1.50;;;;;;;-147.53;100.00;57128.34;10221168;28;20071;-89
2022/09/04 05:01:16;;;;;;;6.60;1.80;;;;;;;-147.53;100.00;57128.34;10229264;28;20043;-90
2022/09/04 05:06:24;;;;;;;3.53;1.60;;;;;;;-147.53;100.00;57128.34;10238670;28;20062;-89
2022/09/04 05:11:45;;;;;;;4.25;1.50;;;;;;;-147.53;100.00;57128.34;10234023;28;20054;-89
2022/09/04 05:17:16;;;;;;;5.68;1.50;;;;;;;-147.53;100.00;57128.34;10229962;28;20039;-89
2022/09/04 05:22:41;;;;;;;2.72;1.63;;;;;;;-147.53;100.00;57128.34;10237108;28;20047;-89
2022/09/04 05:27:45;;;;;;;3.45;1.45;;;;;;;-147.53;100.00;57128.34;10241306;28;20082;-89
2022/09/04 05:33:09;;;;;;;4.35;1.70;;;;;;;-147.53;100.00;57128.34;10238320;28;20126;-89
2022/09/04 05:38:18;;;;;;;12.32;1.75;;;;;;;-147.53;100.00;57128.34;10264729;28;20040;-88
2022/09/04 05:43:29;;;;;;;7.22;1.60;;;;;;;-147.53;100.00;57128.34;10244801;28;20044;-90
2022/09/04 05:49:00;;;;;;;4.22;1.67;;;;;;;-147.53;100.00;57128.34;10231589;28;20031;-91
2022/09/04 05:54:45;;;;;;;4.32;1.80;;;;;;;-147.53;100.00;57128.34;10258006;28;20237;-92
2022/09/04 06:00:14;;;;;;;3.25;1.60;;;;;;;-147.53;100.00;57128.34;10257305;28;20062;-93
2022/09/04 06:06:12;;;;;;;4.80;1.98;;;;;;;-147.53;100.00;57128.34;10250732;28;20039;-91
2022/09/04 06:11:36;;;;;;;5.50;1.95;;;;;;;-147.53;100.00;57128.34;10235348;28;20125;-90
2022/09/04 06:17:20;;;;;;;3.85;1.52;;;;;;;-147.53;100.00;57128.34;10219595;28;20031;-91
2022/09/04 06:22:48;;;;;;;2.55;1.55;;;;;;;-147.53;100.00;57128.34;10204506;28;20043;-90
2022/09/04 06:28:28;;;;;;;6.28;1.73;;;;;;;-147.53;100.00;57128.34;10240406;28;20066;-91
2022/09/04 06:34:02;;;;;;;6.32;1.80;;;;;;;-147.53;100.00;57128.34;10219383;28;20170;-90
2022/09/04 06:39:30;;;;;;;5.90;2.00;;;;;;;-147.53;100.00;57128.34;10227170;28;20576;-91
2022/09/04 06:45:28;;;;;;;4.22;1.83;;;;;;;-147.53;100.00;57128.34;10245689;28;20179;-90
2022/09/04 06:51:14;;;;;;;7.68;2.20;;;;;;;-147.53;100.00;57128.34;10227744;28;20133;-90
2022/09/04 06:56:40;;;;;;;6.07;2.45;;;;;;;-147.53;100.00;57128.34;10235213;28;20258;-91
2022/09/04 07:02:27;;;;;;;6.30;2.28;;;;;;;-147.53;100.00;57128.34;10217127;28;20460;-91
2022/09/04 07:07:57;;;;;;;13.27;2.75;;;;;;;-147.53;100.00;57128.34;10240091;28;20046;-90
2022/09/04 07:13:38;;;;;;;5.60;2.25;;;;;;;-147.53;100.00;57128.34;10238562;28;20051;-90
2022/09/04 07:25:48;;;;;;;7.93;2.15;;;;;;;-147.53;100.00;57128.34;10232466;28;20131;-90
2022/09/04 07:31:03;;;;;;;8.27;2.50;;;;;;;-147.53;100.00;57128.34;10229253;28;20058;-91
2022/09/04 07:36:37;;;;;;;10.90;2.43;;;;;;;-147.53;100.00;57128.34;10244930;28;20044;-91
2022/09/04 07:42:11;;;;;;;5.15;2.10;;;;;;;-147.53;100.00;57128.34;10227897;28;20047;-91
2022/09/04 07:47:34;;;;;;;6.80;2.50;;;;;;;-147.53;100.00;57128.34;10190127;28;20042;-91
2022/09/04 07:52:49;;;;;;;7.95;2.40;;;;;;;-147.53;100.00;57128.34;10243006;28;20038;-90
2022/09/04 07:58:01;;;;;;;4.00;1.90;;;;;;;-147.53;100.00;57128.34;10227257;28;20106;-90
2022/09/04 08:03:47;;;;;;;6.60;2.00;;;;;;;-147.53;100.00;57128.34;10240375;28;20043;-91
2022/09/04 08:09:31;;;;;;;5.43;2.08;;;;;;;-147.53;100.00;57128.34;10231271;28;20047;-94
2022/09/04 08:15:14;;;;;;;10.60;2.58;;;;;;;-147.53;100.00;57128.34;10240333;28;20051;-93
2022/09/04 08:20:33;;;;;;;5.85;2.40;;;;;;;-147.53;100.00;57128.34;10230143;28;20049;-92
2022/09/04 08:26:02;;;;;;;6.50;2.23;;;;;;;-147.53;100.00;57128.34;10253319;28;20940;-91
2022/09/04 08:31:24;;;;;;;5.00;2.10;;;;;;;-147.53;100.00;57128.34;10244739;28;20051;-91
2022/09/04 08:36:49;;;;;;;5.03;2.35;;;;;;;-147.53;100.00;57128.34;10239169;28;20486;-91
2022/09/04 08:42:12;;;;;;;4.90;2.20;;;;;;;-147.53;100.00;57128.34;10228450;28;20402;-91
2022/09/04 08:47:35;;;;;;;4.63;1.90;;;;;;;-147.53;100.00;57128.34;10237707;28;20039;-92
2022/09/04 08:52:57;;;;;;;8.02;2.50;;;;;;;-147.53;100.00;57128.34;10249118;28;20436;-90
2022/09/04 08:58:55;;;;;;;5.85;2.30;;;;;;;-147.53;100.00;57128.34;10234176;28;20046;-90
2022/09/04 09:04:23;;;;;;;9.32;2.40;;;;;;;-147.53;100.00;57128.34;10249302;28;20043;-92
2022/09/04 09:09:44;;;;;;;5.53;2.03;;;;;;;-147.53;100.00;57128.34;10247071;28;20039;-91
2022/09/04 09:15:07;;;;;;;4.53;1.88;;;;;;;-147.53;100.00;57128.34;10255903;28;20050;-91
2022/09/04 09:20:29;;;;;;;4.72;1.85;;;;;;;-147.53;100.00;57128.34;10260407;28;20075;-90
2022/09/04 09:25:49;;;;;;;9.63;2.17;;;;;;;-147.53;100.00;57128.34;10236610;28;20584;-89
2022/09/04 09:31:26;;;;;;;7.38;3.15;;;;;;;-147.53;100.00;57128.34;10248636;28;20039;-91
2022/09/04 09:36:43;;;;;;;5.57;2.35;;;;;;;-147.53;100.00;57128.34;10253369;28;20134;-91
2022/09/04 09:41:58;;;;;;;7.95;2.30;;;;;;;-147.53;100.00;57128.34;10220383;28;20094;-92
2022/09/04 09:47:24;;;;;;;9.68;2.00;;;;;;;-147.53;100.00;57128.34;10236704;28;20039;-91
2022/09/04 09:52:49;;;;;;;8.85;2.00;;;;;;;-147.53;100.00;57128.34;10255990;28;20047;-92
2022/09/04 09:58:19;;;;;;;8.38;2.40;;;;;;;-147.53;100.00;57128.34;10252580;28;20048;-90
2022/09/04 10:03:40;;;;;;;9.27;2.55;;;;;;;-147.53;100.00;57128.34;10237737;28;20087;-92
2022/09/04 10:08:57;;;;;;;6.10;2.20;;;;;;;-147.53;100.00;57128.34;10241745;28;20496;-91
2022/09/04 10:14:35;;;;;;;10.10;2.67;;;;;;;-147.53;100.00;57128.34;10240731;28;20050;-92
2022/09/04 10:20:15;;;;;;;5.57;2.33;;;;;;;-147.53;100.00;57128.34;10240863;28;20046;-91
2022/09/04 10:25:47;;;;;;;5.50;2.58;;;;;;;-147.53;100.00;57128.34;10253782;28;20047;-90
2022/09/04 10:31:29;;;;;;;6.85;2.63;;;;;;;-147.53;100.00;57128.34;10234664;28;20050;-90
2022/09/04 10:37:00;;;;;;;7.75;2.42;;;;;;;-147.53;100.00;57128.34;10260168;28;20129;-91
2022/09/04 10:42:30;;;;;;;6.90;2.50;;;;;;;-147.53;100.00;57128.34;10236321;28;20058;-92
2022/09/04 10:47:34;;;;;;;5.22;2.42;;;;;;;-147.53;100.00;57128.34;10255068;28;20549;-92
2022/09/04 10:52:54;;;;;;;6.20;2.28;;;;;;;-147.53;100.00;57128.34;10251960;28;20070;-90
2022/09/04 10:58:15;;;;;;;6.75;2.17;;;;;;;-147.53;100.00;57128.34;10257628;28;20048;-92
2022/09/04 11:03:36;;;;;;;5.05;2.80;;;;;;;-147.53;100.00;57128.34;10242078;28;20260;-91
2022/09/04 11:08:47;;;;;;;7.60;2.63;;;;;;;-147.53;100.00;57128.34;10260239;28;20071;-92
2022/09/04 11:13:52;;;;;;;6.07;2.30;;;;;;;-147.53;100.00;57128.34;10253643;28;20043;-91
2022/09/04 11:19:14;;;;;;;6.38;2.17;;;;;;;-147.53;100.00;57128.34;10236105;28;20039;-92
2022/09/04 11:24:46;;;;;;;4.15;1.90;;;;;;;-147.53;100.00;57128.34;10250842;28;20039;-91
2022/09/04 11:30:24;;;;;;;4.60;1.77;;;;;;;-147.53;100.00;57128.34;10274102;28;20043;-93
2022/09/04 11:35:54;;;;;;;7.30;2.85;;;;;;;-147.53;100.00;57128.34;10285744;28;20046;-92
2022/09/04 11:41:27;;;;;;;6.53;2.00;;;;;;;-147.53;100.00;57128.34;10244140;28;20078;-93
2022/09/04 11:46:53;;;;;;;5.18;1.98;;;;;;;-147.53;100.00;57128.34;10244309;28;20039;-90
2022/09/04 11:52:13;;;;;;;5.90;1.98;;;;;;;-147.53;100.00;57128.34;10231147;28;20043;-91
2022/09/04 11:58:12;;;;;;;10.88;2.15;;;;;;;-147.53;100.00;57128.34;10229780;28;20027;-91
2022/09/04 12:03:29;;;;;;;5.90;1.80;;;;;;;-147.53;100.00;57128.34;10234886;28;20050;-93
2022/09/04 12:09:13;;;;;;;5.57;2.25;;;;;;;-147.53;100.00;57128.34;10238222;28;20146;-92
2022/09/04 12:14:29;;;;;;;4.90;2.00;;;;;;;-147.53;100.00;57128.34;10246493;28;20051;-92
2022/09/04 12:20:07;;;;;;;6.85;2.00;;;;;;;-147.53;100.00;57128.34;10234706;28;20074;-92
2022/09/04 12:25:09;;;;;;;6.43;2.00;;;;;;;-147.53;100.00;57128.34;10216804;28;20050;-92
2022/09/04 12:30:20;;;;;;;8.00;1.70;;;;;;;-147.53;100.00;57128.34;10225062;28;20472;-91
2022/09/04 12:35:43;;;;;;;8.40;1.92;;;;;;;-147.53;100.00;57128.34;10260112;28;20053;-92
2022/09/04 12:41:03;;;;;;;8.02;2.00;;;;;;;-147.53;100.00;57128.34;10251573;28;20138;-92
2022/09/04 12:46:16;;;;;;;2.65;1.60;;;;;;;-147.53;100.00;57128.34;10253266;28;20122;-93
2022/09/04 12:51:23;;;;;;;7.07;2.08;;;;;;;-147.53;100.00;57128.34;10264617;28;20061;-92
2022/09/04 12:56:47;;;;;;;3.75;1.60;;;;;;;-147.53;100.00;57128.34;10233108;29;20078;-93
2022/09/04 13:01:59;;;;;;;4.43;1.92;;;;;;;-147.53;100.00;57128.34;10259816;28;20081;-91
2022/09/04 13:07:03;;;;;;;9.55;1.90;;;;;;;-147.53;100.00;57128.34;10240433;28;20039;-92
2022/09/04 13:12:45;;;;;;;3.20;1.60;;;;;;;-147.53;100.00;57128.34;10262754;28;20068;-92
2022/09/04 13:18:16;;;;;;;4.65;1.45;;;;;;;-147.53;100.00;57128.34;10220131;28;20131;-92
2022/09/04 13:23:42;;;;;;;4.40;1.95;;;;;;;-147.53;100.00;57128.34;10231692;28;20036;-92
2022/09/04 13:29:14;;;;;;;4.32;1.70;;;;;;;-147.53;100.00;57128.34;10253618;28;20028;-91
2022/09/04 13:34:59;;;;;;;5.95;1.50;;;;;;;-147.53;100.00;57128.34;10262411;28;20043;-94
2022/09/04 13:40:22;;;;;;;4.43;1.60;;;;;;;-147.53;100.00;57128.34;10238838;28;20562;-93
2022/09/04 13:45:33;;;;;;;4.05;1.60;;;;;;;-147.53;100.00;57128.34;10229446;28;20073;-92
2022/09/04 13:50:45;;;;;;;3.60;1.52;;;;;;;-147.53;100.00;57128.34;10232456;28;20416;-92
2022/09/04 13:55:58;;;;;;;3.53;1.50;;;;;;;-147.53;100.00;57128.34;10242236;28;20043;-92
2022/09/04 14:01:09;;;;;;;2.90;1.45;;;;;;;-147.53;100.00;57128.34;10255409;28;20114;-96
2022/09/04 14:06:14;;;;;;;5.25;1.63;;;;;;;-147.53;100.00;57128.34;10282881;28;20083;-92
2022/09/04 14:11:44;;;;;;;3.78;1.50;;;;;;;-147.53;100.00;57128.34;10255373;28;20102;-92
2022/09/04 14:16:48;;;;;;;2.83;1.45;;;;;;;-147.53;100.00;57128.34;10253468;28;20046;-91
2022/09/04 14:21:55;;;;;;;3.58;1.48;;;;;;;-147.53;100.00;57128.34;10234231;28;20098;-90
2022/09/04 14:27:03;;;;;;;2.67;1.40;;;;;;;-147.53;100.00;57128.34;10211105;28;20043;-91
2022/09/04 14:32:38;;;;;;;5.43;1.40;;;;;;;-147.53;100.00;57128.34;10241467;28;20051;-90
2022/09/04 14:37:58;;;;;;;3.38;1.50;;;;;;;-147.53;100.00;57128.34;10226750;28;20130;-89
2022/09/04 14:43:27;;;;;;;6.00;1.80;;;;;;;-147.53;100.00;57128.34;10214576;28;20087;-89
2022/09/04 14:48:35;;;;;;;2.97;1.63;;;;;;;-147.53;100.00;57128.34;10226083;28;20038;-89
2022/09/04 14:53:36;;;;;;;4.50;1.80;;;;;;;-147.53;100.00;57128.34;10234600;28;20061;-89
2022/09/04 14:58:52;;;;;;;2.88;1.70;;;;;;;-147.53;100.00;57128.34;10229961;28;20114;-89
2022/09/04 15:04:08;;;;;;;3.83;1.50;;;;;;;-147.53;100.00;57128.34;10241086;28;20058;-90
2022/09/04 15:09:37;;;;;;;7.30;1.80;;;;;;;-147.53;100.00;57128.34;10225586;28;20389;-93
2022/09/04 15:14:45;;;;;;;4.05;1.52;;;;;;;-147.53;100.00;57128.34;10262539;28;20075;-92
2022/09/04 15:19:54;;;;;;;2.83;1.45;;;;;;;-147.53;100.00;57128.34;10218845;28;20094;-90
2022/09/04 15:25:08;;;;;;;9.15;1.73;;;;;;;-147.53;100.00;57128.34;10212713;28;20038;-91
2022/09/04 15:30:26;;;;;;;5.55;2.00;;;;;;;-147.53;100.00;57128.34;10230225;28;20489;-89
2022/09/04 15:35:30;;;;;;;3.78;1.60;;;;;;;-147.53;100.00;57128.34;10238922;28;20051;-88
2022/09/04 15:40:49;;;;;;;3.47;1.77;;;;;;;-147.53;100.00;57128.34;10243220;28;20050;-90
2022/09/04 15:46:27;;;;;;;2.92;1.50;;;;;;;-147.53;100.00;57128.34;10222594;28;20035;-90
2022/09/04 15:51:49;;;;;;;4.25;1.30;;;;;;;-147.53;100.00;57128.34;10246741;28;20129;-90
2022/09/04 15:57:09;;;;;;;2.80;1.50;;;;;;;-147.53;100.00;57128.34;10250427;28;20062;-91
2022/09/04 16:02:35;;;;;;;5.45;2.00;;;;;;;-147.53;100.00;57128.34;10247158;28;20854;-90
2022/09/04 16:07:53;;;;;;;5.07;2.00;;;;;;;-147.53;100.00;57128.34;10251978;28;22152;-90
2022/09/04 16:13:06;;;;;;;4.07;1.87;;;;;;;-147.53;100.00;57128.34;10251263;28;20053;-92
2022/09/04 16:18:18;;;;;;;6.10;1.77;;;;;;;-147.53;100.00;57128.34;10233717;28;20448;-90
2022/09/04 16:23:34;;;;;;;3.50;1.77;;;;;;;-147.53;100.00;57128.34;10242979;28;20400;-91
2022/09/04 16:28:46;;;;;;;1.95;1.38;;;;;;;-147.53;100.00;57128.34;10236379;28;20118;-90
2022/09/04 16:33:52;;;;;;;4.38;1.52;;;;;;;-147.53;100.00;57128.34;10214055;28;20044;-89
2022/09/04 16:39:04;;;;;;;3.22;1.70;;;;;;;-147.53;100.00;57128.34;10254300;28;20042;-92
2022/09/04 16:44:06;;;;;;;4.20;1.52;;;;;;;-147.53;100.00;57128.34;10230767;28;20236;-89
2022/09/04 16:49:24;;;;;;;3.08;1.73;;;;;;;-147.53;100.00;57128.34;10259891;28;20070;-90
2022/09/04 16:54:46;;;;;;;3.50;1.67;;;;;;;-147.53;100.00;57128.34;10231985;28;20078;-90
2022/09/04 16:59:52;;;;;;;5.88;1.85;;;;;;;-147.53;100.00;57128.34;10237766;28;20101;-92
2022/09/04 17:05:18;;;;;;;5.50;1.67;;;;;;;-147.53;100.00;57128.34;10211841;28;20109;-92
2022/09/04 17:10:36;;;;;;;3.97;1.60;;;;;;;-147.53;100.00;57128.34;10246830;28;20755;-92
2022/09/04 17:16:02;;;;;;;3.70;1.52;;;;;;;-147.53;100.00;57128.34;10219769;28;20035;-92
2022/09/04 17:34:24;;;;;;;7.40;2.00;;;;;;;-147.53;100.00;57128.34;10211009;28;20043;-91
2022/09/04 17:39:59;;;;;;;4.05;1.90;;;;;;;-147.53;100.00;57128.34;10225806;28;20074;-93
2022/09/04 17:45:59;;;;;;;3.15;1.77;;;;;;;-147.53;100.00;57128.34;10242218;28;20595;-92
2022/09/04 17:51:06;;;;;;;6.40;2.00;;;;;;;-147.53;100.00;57128.34;10230674;28;20038;-93
2022/09/04 17:56:35;;;;;;;4.80;1.90;;;;;;;-147.53;100.00;57128.34;10244615;28;20043;-92
2022/09/04 18:01:53;;;;;;;4.32;1.88;;;;;;;-147.53;100.00;57128.34;10218085;28;20047;-92
2022/09/04 18:07:12;;;;;;;3.60;1.98;;;;;;;-147.53;100.00;57128.34;10230519;28;20035;-91
2022/09/04 18:13:19;;;;;;;8.82;2.17;;;;;;;-147.53;100.00;57128.34;10272176;28;20445;-90
2022/09/04 18:18:57;;;;;;;6.25;2.05;;;;;;;-147.53;100.00;57128.34;10262161;28;20043;-91
2022/09/04 18:24:42;;;;;;;5.85;2.00;;;;;;;-147.53;100.00;57128.34;10216610;28;20054;-92
2022/09/04 18:30:11;;;;;;;3.90;1.85;;;;;;;-147.53;100.00;57128.34;10248807;28;20097;-91
2022/09/04 18:35:59;;;;;;;6.88;2.28;;;;;;;-147.53;100.00;57128.34;10216333;28;20134;-90
2022/09/04 18:42:01;;;;;;;4.80;2.50;;;;;;;-147.53;100.00;57128.34;10227990;28;20525;-90
2022/09/04 18:47:51;;;;;;;4.18;2.30;;;;;;;-147.53;100.00;57128.34;10236486;28;20391;-90
2022/09/04 18:53:31;;;;;;;5.47;2.28;;;;;;;-147.53;100.00;57128.34;10270845;28;20053;-89
2022/09/04 18:58:48;;;;;;;6.65;2.17;;;;;;;-147.53;100.00;57128.34;10227189;28;20047;-89
2022/09/04 19:04:54;;;;;;;7.65;2.78;;;;;;;-147.53;100.00;57128.34;10258859;28;20050;-90
2022/09/04 19:10:21;;;;;;;5.00;2.10;;;;;;;-147.53;100.00;57128.34;10212435;28;20043;-90
2022/09/04 19:15:54;;;;;;;4.50;2.10;;;;;;;-147.53;100.00;57128.34;10257507;28;20043;-91
2022/09/04 19:21:34;;;;;;;10.00;2.10;;;;;;;-147.53;100.00;57128.34;10261055;28;20050;-92
2022/09/04 19:27:06;;;;;;;4.78;2.17;;;;;;;-147.53;100.00;57128.34;10184785;28;20042;-92
2022/09/04 19:32:44;;;;;;;6.38;2.72;;;;;;;-147.53;100.00;57128.34;10225522;28;20062;-91
2022/09/04 19:37:58;;;;;;;6.05;2.40;;;;;;;-147.53;100.00;57128.34;10242279;28;20062;-91
2022/09/04 19:43:35;;;;;;;4.53;2.17;;;;;;;-147.53;100.00;57128.34;10246642;28;20122;-91
2022/09/04 19:49:23;;;;;;;8.55;2.90;;;;;;;-147.53;100.00;57128.34;10229313;28;20043;-90
2022/09/04 19:55:12;;;;;;;7.90;2.13;;;;;;;-147.53;100.00;57128.34;10220849;28;20045;-91
2022/09/04 20:00:31;;;;;;;7.63;2.33;;;;;;;-147.53;100.00;57128.34;10219266;28;20047;-90
2022/09/04 20:06:14;;;;;;;4.72;2.15;;;;;;;-147.53;100.00;57128.34;10242894;28;20503;-91
2022/09/04 20:11:25;;;;;;;5.47;2.17;;;;;;;-147.53;100.00;57128.34;10246399;28;20051;-90
2022/09/04 20:17:06;;;;;;;7.32;2.63;;;;;;;-147.53;100.00;57128.34;10239926;28;20118;-91
2022/09/04 20:22:32;;;;;;;5.57;2.40;;;;;;;-147.53;100.00;57128.34;10238677;28;20516;-91
2022/09/04 20:27:46;;;;;;;4.95;2.50;;;;;;;-147.53;100.00;57128.34;10220562;28;20039;-91
2022/09/04 20:33:04;;;;;;;6.13;2.17;;;;;;;-147.53;100.00;57128.34;10231111;28;22531;-92
2022/09/04 20:38:43;;;;;;;5.95;2.65;;;;;;;-147.53;100.00;57128.34;10249756;28;20089;-91
2022/09/04 20:44:00;;;;;;;8.25;2.40;;;;;;;-147.53;100.00;57128.34;10243093;28;20065;-91
2022/09/04 20:49:16;;;;;;;8.35;2.75;;;;;;;-147.53;100.00;57128.34;10235235;28;20046;-91
2022/09/04 20:55:17;;;;;;;6.07;2.08;;;;;;;-147.53;100.00;57128.34;10242663;28;20043;-90
2022/09/04 21:00:19;;;;;;;6.55;2.58;;;;;;;-147.53;100.00;57128.34;10225686;28;20059;-90
2022/09/04 21:06:11;;;;;;;7.05;2.30;;;;;;;-147.53;100.00;57128.34;10218956;28;20047;-91
2022/09/04 21:11:28;;;;;;;5.85;2.38;;;;;;;-147.53;100.00;57128.34;10239098;28;20067;-90
2022/09/04 21:16:53;;;;;;;4.45;2.40;;;;;;;-147.53;100.00;57128.34;10241547;28;20450;-91
2022/09/04 21:22:36;;;;;;;6.32;2.30;;;;;;;-147.53;100.00;57128.34;10241344;28;20044;-89
2022/09/04 21:27:50;;;;;;;10.57;2.80;;;;;;;-147.53;100.00;57128.34;10241038;28;20469;-91
2022/09/04 21:33:06;;;;;;;7.18;2.42;;;;;;;-147.53;100.00;57128.34;10259672;28;20601;-93
2022/09/04 21:38:54;;;;;;;5.30;2.53;;;;;;;-147.53;100.00;57128.34;10236721;28;20520;-90
2022/09/04 21:44:33;;;;;;;5.35;2.22;;;;;;;-147.53;100.00;57128.34;10253570;28;20043;-90
2022/09/04 21:50:05;;;;;;;6.70;2.47;;;;;;;-147.53;100.00;57128.34;10231021;28;20734;-91
2022/09/04 21:55:21;;;;;;;8.90;2.78;;;;;;;-147.53;100.00;57128.34;10247377;28;20069;-92
2022/09/04 22:01:09;;;;;;;4.28;2.22;;;;;;;-147.53;100.00;57128.34;10264190;28;20043;-91
2022/09/04 22:06:56;;;;;;;5.88;2.63;;;;;;;-147.53;100.00;57128.34;10290537;28;20546;-91
2022/09/04 22:12:41;;;;;;;5.50;2.40;;;;;;;-147.53;100.00;57128.34;10260259;28;20043;-90
2022/09/04 22:18:32;;;;;;;4.25;2.45;;;;;;;-147.53;100.00;57128.34;10227546;28;20057;-92
2022/09/04 22:23:52;;;;;;;5.22;2.35;;;;;;;-147.53;100.00;57128.34;10226448;28;20048;-91
2022/09/04 22:29:00;;;;;;;9.60;2.63;;;;;;;-147.53;100.00;57128.34;10245907;28;20038;-91
2022/09/04 22:34:17;;;;;;;7.38;3.05;;;;;;;-147.53;100.00;57128.34;10218824;28;20039;-91
2022/09/04 22:39:37;;;;;;;5.05;2.45;;;;;;;-147.53;100.00;57128.34;10246195;28;20030;-90
2022/09/04 22:45:13;;;;;;;6.30;2.40;;;;;;;-147.53;100.00;57128.34;10236804;28;20500;-91
2022/09/04 22:50:33;;;;;;;5.72;2.42;;;;;;;-147.53;100.00;57128.34;10262641;28;20484;-91
2022/09/04 22:55:59;;;;;;;6.38;2.50;;;;;;;-147.53;100.00;57128.34;10258346;28;20149;-91
2022/09/04 23:01:38;;;;;;;5.03;2.25;;;;;;;-147.53;100.00;57128.34;10244838;28;20050;-90
2022/09/04 23:07:01;;;;;;;10.82;3.08;;;;;;;-147.53;100.00;57128.34;10231063;28;20039;-91
2022/09/04 23:12:27;;;;;;;5.53;2.22;;;;;;;-147.53;100.00;57128.34;10228605;28;20535;-91
2022/09/04 23:17:49;;;;;;;4.07;2.05;;;;;;;-147.53;100.00;57128.34;10246844;28;20600;-90
2022/09/04 23:23:20;;;;;;;6.53;2.40;;;;;;;-147.53;100.00;57128.34;10240269;28;20074;-91
2022/09/04 23:29:05;;;;;;;3.15;1.90;;;;;;;-147.53;100.00;57128.34;10238060;28;20558;-91
2022/09/04 23:34:37;;;;;;;4.63;2.45;;;;;;;-147.53;100.00;57128.34;10222072;28;20416;-91
2022/09/04 23:40:18;;;;;;;5.85;2.42;;;;;;;-147.53;100.00;57128.34;10230266;28;20472;-91
2022/09/04 23:45:23;;;;;;;5.88;2.40;;;;;;;-147.53;100.00;57128.34;10229056;28;20070;-91
2022/09/04 23:51:01;;;;;;;4.78;2.20;;;;;;;-147.53;100.00;57128.34;10234479;28;20504;-91
2022/09/04 23:56:34;;;;;;;4.72;2.22;;;;;;;-147.53;100.00;57128.34;10234735;28;20039;-91
